Time;durP1;ratioP1;P1;durP2;ratioP2;P2;SDS_P1;SDS_P2;PMS_P1;PMS_P2;Temp;Humidity;BMP_temperature;BMP_pressure;BME280_temperature;BME280_humidity;BME280_pressure;Samples;Min_cycle;Max_cycle;Signal;HPM_P1;HPM_P2
2022/09/18 00:02:24;;;;;;;8.05;1.73;;;9.80;99.90;;;;;;4402125;27;10000310;-74
2022/09/18 00:04:49;;;;;;;6.38;1.40;;;9.80;99.90;;;;;;5122757;27;20023;-74
2022/09/18 00:07:15;;;;;;;7.45;1.60;;;9.80;99.90;;;;;;5112117;27;20020;-74
2022/09/18 00:09:42;;;;;;;7.25;1.50;;;9.80;99.90;;;;;;5116307;27;20024;-74
2022/09/18 00:12:08;;;;;;;8.43;1.20;;;9.80;99.90;;;;;;5128431;27;20046;-73
2022/09/18 00:14:33;;;;;;;7.72;1.30;;;9.80;99.90;;;;;;5109990;28;20720;-74
2022/09/18 00:16:59;;;;;;;6.35;1.38;;;9.80;99.90;;;;;;5121151;27;20364;-74
2022/09/18 00:19:25;;;;;;;8.10;1.70;;;9.80;99.90;;;;;;5109174;28;20102;-74
2022/09/18 00:21:51;;;;;;;4.13;1.20;;;9.90;99.90;;;;;;5114837;28;20131;-74
2022/09/18 00:24:17;;;;;;;7.30;1.80;;;9.90;99.90;;;;;;5134535;27;20546;-74
2022/09/18 00:26:44;;;;;;;7.05;1.67;;;9.90;99.90;;;;;;5115885;27;20019;-74
2022/09/18 00:29:11;;;;;;;9.05;1.48;;;9.90;99.90;;;;;;5114396;27;20042;-74
2022/09/18 00:31:38;;;;;;;8.93;1.73;;;10.00;99.90;;;;;;5121678;27;20027;-74
2022/09/18 00:34:07;;;;;;;7.43;1.50;;;10.00;99.90;;;;;;5119854;27;20027;-74
2022/09/18 00:36:34;;;;;;;6.55;1.58;;;10.00;99.90;;;;;;5120967;27;20543;-74
2022/09/18 00:39:01;;;;;;;5.03;1.50;;;10.00;99.90;;;;;;5118546;27;20154;-74
2022/09/18 00:41:30;;;;;;;8.90;1.63;;;10.00;99.90;;;;;;5082701;27;1102739;-74
2022/09/18 00:44:27;;;;;;;7.85;1.70;;;10.00;99.90;;;;;;5128469;27;20050;-74
2022/09/18 00:46:56;;;;;;;5.97;1.48;;;10.00;99.90;;;;;;5113526;27;20035;-74
2022/09/18 00:49:25;;;;;;;8.07;1.67;;;10.00;99.90;;;;;;5120671;27;20161;-74
2022/09/18 00:51:54;;;;;;;8.27;2.03;;;10.00;99.90;;;;;;5126820;27;20368;-74
2022/09/18 00:54:28;;;;;;;5.88;1.30;;;10.00;99.90;;;;;;5128518;27;20038;-75
2022/09/18 00:56:59;;;;;;;7.45;1.50;;;10.10;99.90;;;;;;5124701;27;20022;-74
2022/09/18 00:59:29;;;;;;;7.75;1.30;;;10.10;99.90;;;;;;5115183;27;20024;-74
2022/09/18 01:01:56;;;;;;;9.55;1.70;;;10.10;99.90;;;;;;5114973;27;20019;-74
2022/09/18 01:04:22;;;;;;;8.77;1.42;;;10.10;99.90;;;;;;5116219;27;20246;-75
2022/09/18 01:06:48;;;;;;;7.78;1.23;;;10.10;99.90;;;;;;5110808;27;20012;-74
2022/09/18 01:09:41;;;;;;;5.88;1.40;;;10.10;99.90;;;;;;5108455;27;20032;-74
2022/09/18 01:12:29;;;;;;;6.32;1.42;;;10.10;99.90;;;;;;5116322;27;20030;-74
2022/09/18 01:15:00;;;;;;;4.75;1.10;;;10.10;99.90;;;;;;5122168;27;20054;-74
2022/09/18 01:17:48;;;;;;;6.43;1.45;;;10.10;99.90;;;;;;5117986;27;20748;-73
2022/09/18 01:20:26;;;;;;;9.48;1.52;;;10.20;99.90;;;;;;5110893;27;20051;-73
2022/09/18 01:23:22;;;;;;;5.63;1.55;;;10.20;99.90;;;;;;5120402;27;20541;-74
2022/09/18 01:26:11;;;;;;;9.85;1.60;;;10.20;99.90;;;;;;5137527;27;20430;-74
2022/09/18 01:29:01;;;;;;;7.78;1.85;;;10.20;99.90;;;;;;5101177;27;20440;-74
2022/09/18 01:32:14;;;;;;;5.65;1.40;;;10.20;99.90;;;;;;5112907;27;20031;-74
2022/09/18 01:34:58;;;;;;;6.22;1.30;;;10.20;99.90;;;;;;5069829;27;20463;-74
2022/09/18 01:37:48;;;;;;;5.60;1.25;;;10.10;99.90;;;;;;5118097;27;20257;-73
2022/09/18 01:40:35;;;;;;;5.80;1.38;;;10.10;99.90;;;;;;5112094;27;20112;-74
2022/09/18 01:43:07;;;;;;;5.28;1.45;;;10.10;99.90;;;;;;5117615;27;20426;-74
2022/09/18 01:45:39;;;;;;;4.63;1.38;;;10.10;99.90;;;;;;5112325;27;20032;-74
2022/09/18 01:48:07;;;;;;;5.45;1.45;;;10.10;99.90;;;;;;5118608;27;20033;-74
2022/09/18 01:50:37;;;;;;;7.70;1.60;;;10.10;99.90;;;;;;5119810;27;20028;-73
2022/09/18 01:53:10;;;;;;;4.38;1.38;;;10.10;99.90;;;;;;5131103;27;20027;-73
2022/09/18 01:55:39;;;;;;;6.13;1.63;;;10.00;99.90;;;;;;5112044;27;20509;-74
2022/09/18 01:58:12;;;;;;;7.60;1.80;;;10.10;99.90;;;;;;5121650;27;20299;-74
2022/09/18 02:00:42;;;;;;;4.70;1.40;;;10.10;99.90;;;;;;5112509;27;20042;-74
2022/09/18 02:03:18;;;;;;;7.28;1.40;;;10.10;99.90;;;;;;5116877;27;20038;-74
2022/09/18 02:05:49;;;;;;;7.18;1.75;;;10.10;99.90;;;;;;5123810;27;20027;-74
2022/09/18 02:08:23;;;;;;;8.55;1.90;;;10.10;99.90;;;;;;5110509;27;20022;-74
2022/09/18 02:10:52;;;;;;;9.07;2.03;;;10.10;99.90;;;;;;5125833;27;20116;-74
2022/09/18 02:13:23;;;;;;;8.98;1.50;;;10.10;99.90;;;;;;5125072;27;20027;-74
2022/09/18 02:15:52;;;;;;;6.82;1.80;;;10.10;99.90;;;;;;5134513;27;20089;-75
2022/09/18 02:18:23;;;;;;;4.75;1.65;;;10.10;99.90;;;;;;5127991;27;20078;-74
2022/09/18 02:20:50;;;;;;;5.03;1.40;;;10.10;99.90;;;;;;5121886;27;20031;-74
2022/09/18 02:23:16;;;;;;;5.72;1.50;;;10.10;99.90;;;;;;5135289;27;20022;-75
2022/09/18 02:25:48;;;;;;;11.10;1.67;;;10.10;99.90;;;;;;5137886;27;20041;-73
2022/09/18 02:28:17;;;;;;;6.43;1.80;;;10.10;99.90;;;;;;5130990;27;20027;-73
2022/09/18 02:30:43;;;;;;;5.53;1.63;;;10.10;99.90;;;;;;5122352;27;20041;-73
2022/09/18 02:33:41;;;;;;;3.05;1.40;;;10.10;99.90;;;;;;5122038;27;20304;-74
2022/09/18 02:36:37;;;;;;;6.78;1.95;;;10.10;99.90;;;;;;5070053;27;20027;-74
2022/09/18 02:39:05;;;;;;;3.10;1.25;;;10.10;99.90;;;;;;5108132;27;20023;-74
2022/09/18 02:41:37;;;;;;;4.03;1.52;;;10.00;99.90;;;;;;5094972;27;20036;-74
2022/09/18 02:44:40;;;;;;;3.75;1.50;;;10.00;99.90;;;;;;5101151;28;20034;-73
2022/09/18 02:47:40;;;;;;;5.55;1.60;;;10.00;99.90;;;;;;5099569;28;20038;-74
2022/09/18 02:50:35;;;;;;;4.72;1.25;;;10.00;99.90;;;;;;5082903;28;20031;-73
2022/09/18 02:53:11;;;;;;;4.63;1.33;;;9.90;99.90;;;;;;5098420;28;20027;-74
2022/09/18 02:55:45;;;;;;;4.10;1.40;;;9.90;99.90;;;;;;5105410;28;20060;-74
2022/09/18 02:58:19;;;;;;;2.88;1.13;;;10.00;99.90;;;;;;5096057;28;20371;-74
2022/09/18 03:00:47;;;;;;;8.02;1.60;;;9.90;99.90;;;;;;5100557;28;20055;-74
2022/09/18 03:03:14;;;;;;;4.63;1.40;;;9.90;99.90;;;;;;5091192;28;20019;-74
2022/09/18 03:05:40;;;;;;;6.00;1.52;;;9.90;99.90;;;;;;5090945;28;20035;-74
2022/09/18 03:08:05;;;;;;;4.80;1.40;;;9.80;99.90;;;;;;5086869;28;20495;-74
2022/09/18 03:10:31;;;;;;;4.10;1.55;;;9.80;99.90;;;;;;5099726;28;20172;-74
2022/09/18 03:12:57;;;;;;;3.38;1.20;;;9.80;99.90;;;;;;5105049;28;20031;-75
2022/09/18 03:15:22;;;;;;;4.35;1.50;;;9.80;99.90;;;;;;5100902;28;20023;-74
2022/09/18 03:17:48;;;;;;;3.55;1.33;;;9.90;99.90;;;;;;5095784;28;20062;-75
2022/09/18 03:20:13;;;;;;;2.45;1.30;;;9.90;99.90;;;;;;5111465;28;20407;-74
2022/09/18 03:22:39;;;;;;;6.07;1.90;;;9.90;99.90;;;;;;5098032;28;20244;-74
2022/09/18 03:25:05;;;;;;;4.97;1.70;;;9.90;99.90;;;;;;5110061;28;20027;-74
2022/09/18 03:27:31;;;;;;;3.33;1.27;;;10.00;99.90;;;;;;5093408;28;20020;-74
2022/09/18 03:29:56;;;;;;;7.00;1.60;;;10.00;99.90;;;;;;5094625;28;20024;-74
2022/09/18 03:32:22;;;;;;;3.42;1.52;;;10.00;99.90;;;;;;5103129;28;20027;-74
2022/09/18 03:34:47;;;;;;;5.70;1.85;;;9.90;99.90;;;;;;5112863;27;20027;-75
2022/09/18 03:37:13;;;;;;;6.93;1.77;;;10.00;99.90;;;;;;5102431;27;20027;-75
2022/09/18 03:39:39;;;;;;;4.85;1.50;;;9.90;99.90;;;;;;5100762;27;20462;-74
2022/09/18 03:42:04;;;;;;;4.15;1.42;;;9.90;99.90;;;;;;5116992;27;20035;-73
2022/09/18 03:44:30;;;;;;;4.78;1.65;;;9.90;99.90;;;;;;5100073;27;20024;-74
2022/09/18 03:46:55;;;;;;;6.47;1.80;;;9.90;99.90;;;;;;5099754;27;20028;-74
2022/09/18 03:49:21;;;;;;;7.95;1.75;;;9.90;99.90;;;;;;5106551;27;20231;-74
2022/09/18 03:51:47;;;;;;;8.55;1.83;;;9.90;99.90;;;;;;5109539;27;20118;-73
2022/09/18 03:54:13;;;;;;;4.63;1.50;;;9.90;99.90;;;;;;5107376;27;20019;-74
2022/09/18 03:56:39;;;;;;;5.28;1.50;;;9.90;99.90;;;;;;5102694;27;20519;-73
2022/09/18 03:59:04;;;;;;;5.95;1.70;;;9.90;99.90;;;;;;5106081;27;20058;-74
2022/09/18 04:01:30;;;;;;;5.75;1.77;;;9.90;99.90;;;;;;5092530;27;20087;-73
2022/09/18 04:03:55;;;;;;;8.02;2.35;;;9.90;99.90;;;;;;5113873;27;20057;-74
2022/09/18 04:06:21;;;;;;;5.32;1.92;;;9.90;99.90;;;;;;5101874;27;20454;-74
2022/09/18 04:08:47;;;;;;;5.20;1.98;;;9.80;99.90;;;;;;5091575;27;20079;-74
2022/09/18 04:11:12;;;;;;;6.45;2.00;;;9.80;99.90;;;;;;5116267;27;20027;-74
2022/09/18 04:13:38;;;;;;;3.70;1.73;;;9.80;99.90;;;;;;5113283;27;20257;-74
2022/09/18 04:16:03;;;;;;;7.35;1.60;;;9.80;99.90;;;;;;5103272;27;20020;-73
2022/09/18 04:18:29;;;;;;;3.33;1.70;;;9.80;99.90;;;;;;5098349;27;20608;-74
2022/09/18 04:20:55;;;;;;;7.07;2.08;;;9.80;99.90;;;;;;5100002;27;20135;-74
2022/09/18 04:23:21;;;;;;;6.72;1.85;;;9.70;99.90;;;;;;5115632;27;20109;-74
2022/09/18 04:25:47;;;;;;;4.85;1.98;;;9.80;99.90;;;;;;5119939;27;20028;-74
2022/09/18 04:28:12;;;;;;;6.05;1.75;;;9.70;99.90;;;;;;5105035;27;20024;-74
2022/09/18 04:30:38;;;;;;;4.88;2.00;;;9.70;99.90;;;;;;5109384;27;20105;-74
2022/09/18 04:33:04;;;;;;;6.45;2.17;;;9.70;99.90;;;;;;5109733;27;20098;-75
2022/09/18 04:35:30;;;;;;;6.38;2.38;;;9.70;99.90;;;;;;5105845;27;20020;-74
2022/09/18 04:37:56;;;;;;;6.00;2.03;;;9.70;99.90;;;;;;5092135;28;20281;-74
2022/09/18 04:40:21;;;;;;;6.18;2.13;;;9.70;99.90;;;;;;5092045;27;20040;-74
2022/09/18 04:42:47;;;;;;;6.70;2.00;;;9.70;99.90;;;;;;5115209;27;20567;-75
2022/09/18 04:45:13;;;;;;;3.97;1.67;;;9.70;99.90;;;;;;5131847;27;20065;-75
2022/09/18 04:47:39;;;;;;;4.63;2.15;;;9.70;99.90;;;;;;5127821;27;20058;-74
2022/09/18 04:50:07;;;;;;;6.70;2.10;;;9.70;99.90;;;;;;5116764;27;20045;-75
2022/09/18 04:52:33;;;;;;;7.00;2.20;;;9.70;99.90;;;;;;5108843;27;20102;-75
2022/09/18 04:54:59;;;;;;;5.95;1.95;;;9.70;99.90;;;;;;5123122;27;20019;-74
2022/09/18 04:57:25;;;;;;;6.10;1.98;;;9.70;99.90;;;;;;5110191;27;20016;-73
2022/09/18 04:59:50;;;;;;;6.25;2.22;;;9.70;99.90;;;;;;5112058;27;20469;-74
2022/09/18 05:02:17;;;;;;;4.13;1.98;;;9.70;99.90;;;;;;5130307;27;20273;-74
2022/09/18 05:04:43;;;;;;;5.53;1.95;;;9.80;99.90;;;;;;5112828;27;20033;-74
2022/09/18 05:07:08;;;;;;;7.18;2.17;;;9.80;99.90;;;;;;5127590;27;20023;-74
2022/09/18 05:09:35;;;;;;;3.80;2.08;;;9.80;99.90;;;;;;5115480;27;20028;-74
2022/09/18 05:12:01;;;;;;;4.43;2.22;;;9.80;99.90;;;;;;5135172;27;20031;-74
2022/09/18 05:14:26;;;;;;;3.25;1.88;;;9.80;99.90;;;;;;5116232;27;20040;-74
2022/09/18 05:16:52;;;;;;;6.60;2.20;;;9.90;99.90;;;;;;5105651;27;20041;-74
2022/09/18 05:19:18;;;;;;;4.45;2.45;;;9.90;99.90;;;;;;5133458;27;20543;-74
2022/09/18 05:21:43;;;;;;;5.85;2.30;;;9.90;99.90;;;;;;5132027;27;20027;-74
2022/09/18 05:24:09;;;;;;;4.90;2.30;;;9.90;99.90;;;;;;5121176;27;20502;-74
2022/09/18 05:26:34;;;;;;;5.90;2.22;;;9.90;99.90;;;;;;5111138;27;20324;-74
2022/09/18 05:29:00;;;;;;;6.43;2.95;;;10.00;99.90;;;;;;5129375;27;20028;-74
2022/09/18 05:31:26;;;;;;;7.03;2.72;;;10.00;99.90;;;;;;5113858;27;20023;-74
2022/09/18 05:33:51;;;;;;;5.22;2.30;;;10.00;99.90;;;;;;5106935;27;20033;-74
2022/09/18 05:36:17;;;;;;;8.30;2.40;;;10.00;99.90;;;;;;5116457;27;20058;-74
2022/09/18 05:38:44;;;;;;;6.47;2.92;;;9.90;99.90;;;;;;5122337;27;20030;-74
2022/09/18 05:41:09;;;;;;;10.38;5.38;;;9.90;99.90;;;;;;5125604;27;20057;-74
2022/09/18 05:43:35;;;;;;;10.73;5.95;;;10.00;99.90;;;;;;5113155;27;20023;-74
2022/09/18 05:46:01;;;;;;;11.20;8.75;;;9.90;99.90;;;;;;5088128;27;20590;-74
2022/09/18 05:48:27;;;;;;;13.95;11.57;;;10.00;99.90;;;;;;5105059;27;20027;-74
2022/09/18 05:50:52;;;;;;;11.35;8.48;;;10.00;99.90;;;;;;5109095;27;20526;-74
2022/09/18 05:53:20;;;;;;;12.50;9.68;;;10.00;99.90;;;;;;5108275;27;20058;-74
2022/09/18 05:55:46;;;;;;;10.98;5.70;;;10.00;99.90;;;;;;5109085;27;20479;-74
2022/09/18 05:58:16;;;;;;;9.68;4.15;;;10.00;99.90;;;;;;5105971;27;20037;-74
2022/09/18 06:00:43;;;;;;;10.90;4.45;;;10.00;99.90;;;;;;5101954;27;20035;-74
2022/09/18 06:03:11;;;;;;;6.93;3.85;;;10.00;99.90;;;;;;5112986;27;20035;-74
2022/09/18 06:05:37;;;;;;;7.28;3.70;;;10.00;99.90;;;;;;5128714;27;20023;-74
2022/09/18 06:08:05;;;;;;;9.43;3.40;;;10.00;99.90;;;;;;5100706;27;20039;-74
2022/09/18 06:10:33;;;;;;;8.52;3.50;;;10.00;99.90;;;;;;5108991;27;20502;-73
2022/09/18 06:13:03;;;;;;;7.22;3.50;;;10.10;99.90;;;;;;5113911;27;20173;-74
2022/09/18 06:15:29;;;;;;;8.27;4.07;;;10.10;99.90;;;;;;5105413;27;20128;-74
2022/09/18 06:17:54;;;;;;;10.10;3.80;;;10.10;99.90;;;;;;5104539;27;20032;-74
2022/09/18 06:20:20;;;;;;;9.20;3.70;;;10.10;99.90;;;;;;5108855;27;20024;-74
2022/09/18 06:22:46;;;;;;;6.70;3.50;;;10.10;99.90;;;;;;5114099;27;20023;-74
2022/09/18 06:25:12;;;;;;;7.38;3.33;;;10.10;99.90;;;;;;5124360;27;20027;-74
2022/09/18 06:27:37;;;;;;;11.60;3.88;;;10.10;99.90;;;;;;5122428;27;20037;-74
2022/09/18 06:30:04;;;;;;;7.95;3.47;;;10.10;99.90;;;;;;5131535;27;20031;-74
2022/09/18 06:32:30;;;;;;;9.48;4.30;;;10.10;99.90;;;;;;5125145;27;20022;-74
2022/09/18 06:34:56;;;;;;;8.25;3.78;;;10.10;99.90;;;;;;5123511;27;20042;-74
2022/09/18 06:37:21;;;;;;;11.38;3.40;;;10.20;99.90;;;;;;5125644;27;20034;-74
2022/09/18 06:39:47;;;;;;;7.88;3.83;;;10.20;99.90;;;;;;5123507;27;20110;-74
2022/09/18 06:42:12;;;;;;;8.80;3.05;;;10.30;99.90;;;;;;5138882;27;20048;-74
2022/09/18 06:44:38;;;;;;;7.35;3.30;;;10.30;99.90;;;;;;5146305;27;20024;-74
2022/09/18 06:47:03;;;;;;;6.72;2.88;;;10.30;99.90;;;;;;5141241;27;20024;-74
2022/09/18 06:49:29;;;;;;;6.30;3.45;;;10.40;99.90;;;;;;5138291;27;20019;-73
2022/09/18 06:51:55;;;;;;;16.27;8.60;;;10.40;99.90;;;;;;5112336;27;20030;-74
2022/09/18 06:54:20;;;;;;;12.02;5.57;;;10.40;99.90;;;;;;5144047;27;20329;-74
2022/09/18 06:56:46;;;;;;;9.10;4.47;;;10.50;99.90;;;;;;5116717;27;20384;-74
2022/09/18 06:59:12;;;;;;;8.95;4.50;;;10.50;99.90;;;;;;5109317;27;20597;-74
2022/09/18 07:01:38;;;;;;;13.18;6.75;;;10.50;99.90;;;;;;5115190;27;20050;-75
2022/09/18 07:04:04;;;;;;;9.15;4.90;;;10.50;99.90;;;;;;5116203;27;20222;-79
2022/09/18 07:06:29;;;;;;;7.32;4.05;;;10.50;99.90;;;;;;5142903;27;20295;-77
2022/09/18 07:08:55;;;;;;;8.82;4.78;;;10.60;99.90;;;;;;5114232;27;20035;-79
2022/09/18 07:11:21;;;;;;;8.90;6.40;;;10.60;99.90;;;;;;5147149;27;20053;-78
2022/09/18 07:13:46;;;;;;;11.77;5.70;;;10.60;99.90;;;;;;5134695;27;20024;-78
2022/09/18 07:16:12;;;;;;;7.82;4.32;;;10.70;99.90;;;;;;5107615;27;20022;-77
2022/09/18 07:18:38;;;;;;;9.32;4.47;;;10.70;99.90;;;;;;5108657;28;20043;-77
2022/09/18 07:21:04;;;;;;;10.35;3.58;;;10.70;99.90;;;;;;5128671;27;20106;-77
2022/09/18 07:23:32;;;;;;;6.78;2.80;;;10.80;99.90;;;;;;5140371;27;20085;-80
2022/09/18 07:26:02;;;;;;;9.15;3.20;;;10.80;99.90;;;;;;5118395;27;20039;-76
2022/09/18 07:28:28;;;;;;;6.35;2.80;;;10.80;99.90;;;;;;5130130;27;20019;-77
2022/09/18 07:30:54;;;;;;;7.47;2.80;;;10.80;99.90;;;;;;5132570;27;20034;-78
2022/09/18 07:33:20;;;;;;;7.93;2.90;;;10.90;99.90;;;;;;5149553;27;20056;-77
2022/09/18 07:35:46;;;;;;;4.05;2.63;;;11.00;99.90;;;;;;5131435;27;20023;-77
2022/09/18 07:38:12;;;;;;;7.32;2.92;;;11.00;99.90;;;;;;5108096;27;20036;-77
2022/09/18 07:40:40;;;;;;;6.93;2.53;;;11.10;99.90;;;;;;5110922;27;20868;-77
2022/09/18 07:43:09;;;;;;;5.00;2.80;;;11.10;99.90;;;;;;5130719;27;20054;-77
2022/09/18 07:45:35;;;;;;;6.60;3.60;;;11.20;99.90;;;;;;5128901;27;20107;-76
2022/09/18 07:48:05;;;;;;;10.00;3.75;;;11.30;99.90;;;;;;5120838;27;20096;-75
2022/09/18 07:50:31;;;;;;;7.57;3.65;;;11.30;99.90;;;;;;5118106;27;20122;-77
2022/09/18 07:53:00;;;;;;;7.20;3.20;;;11.40;99.90;;;;;;5109409;27;20051;-76
2022/09/18 07:55:27;;;;;;;7.53;3.55;;;11.40;99.90;;;;;;5126103;27;20032;-77
2022/09/18 07:57:56;;;;;;;6.90;3.70;;;11.40;99.90;;;;;;5127904;27;20051;-77
2022/09/18 08:00:22;;;;;;;5.43;3.10;;;11.50;99.90;;;;;;5121402;27;20050;-77
2022/09/18 08:02:48;;;;;;;5.95;2.97;;;11.60;99.90;;;;;;4768265;27;10000580;-74
2022/09/18 08:05:13;;;;;;;3.83;2.60;;;11.60;99.90;;;;;;5114615;27;20028;-73
2022/09/18 08:07:39;;;;;;;5.43;2.40;;;11.70;99.90;;;;;;5101603;27;20093;-74
2022/09/18 08:10:06;;;;;;;3.75;2.10;;;11.70;99.90;;;;;;5124553;27;20031;-74
2022/09/18 08:12:32;;;;;;;7.40;2.50;;;11.80;99.90;;;;;;5139137;27;20030;-73
2022/09/18 08:14:58;;;;;;;4.53;2.50;;;11.80;99.90;;;;;;5126698;27;20032;-74
2022/09/18 08:17:24;;;;;;;4.25;2.50;;;11.80;99.90;;;;;;5117253;27;20020;-74
2022/09/18 08:19:50;;;;;;;6.85;2.65;;;11.80;99.90;;;;;;5108338;27;20041;-74
2022/09/18 08:22:15;;;;;;;3.63;2.67;;;11.80;99.90;;;;;;5133792;27;20026;-73
2022/09/18 08:24:41;;;;;;;5.43;2.80;;;11.80;99.90;;;;;;5128091;27;20019;-74
2022/09/18 08:27:07;;;;;;;3.83;2.35;;;11.70;99.90;;;;;;5140636;27;20034;-74
2022/09/18 08:29:32;;;;;;;4.65;2.00;;;11.70;99.90;;;;;;5116182;27;20026;-74
2022/09/18 08:31:58;;;;;;;3.15;1.85;;;11.70;99.90;;;;;;5129144;27;20054;-74
2022/09/18 08:34:24;;;;;;;1.88;1.30;;;11.60;99.90;;;;;;5127928;27;20092;-74
2022/09/18 08:36:49;;;;;;;4.88;1.40;;;11.60;99.90;;;;;;5140306;27;20501;-74
2022/09/18 08:39:15;;;;;;;1.83;1.40;;;11.60;99.90;;;;;;5121142;27;20052;-73
2022/09/18 08:42:13;;;;;;;2.42;1.20;;;11.50;99.90;;;;;;5119423;27;20042;-74
2022/09/18 08:44:54;;;;;;;2.55;1.38;;;11.50;99.90;;;;;;5117756;27;20028;-74
2022/09/18 08:47:25;;;;;;;3.20;1.55;;;11.60;99.90;;;;;;5120188;27;20027;-74
2022/09/18 08:50:25;;;;;;;1.77;1.50;;;11.70;99.90;;;;;;5114923;27;20048;-74
2022/09/18 08:53:02;;;;;;;2.85;1.70;;;11.90;99.90;;;;;;5082584;27;20083;-74
2022/09/18 08:55:33;;;;;;;3.40;1.77;;;12.00;99.90;;;;;;5115959;27;20039;-73
2022/09/18 08:58:10;;;;;;;6.55;1.40;;;12.20;99.90;;;;;;5128364;27;20481;-74
2022/09/18 09:00:46;;;;;;;3.75;1.30;;;12.30;99.90;;;;;;5124251;27;20197;-74
2022/09/18 09:03:30;;;;;;;2.28;1.20;;;12.40;99.90;;;;;;5107788;27;20368;-74
2022/09/18 09:06:00;;;;;;;1.02;0.95;;;12.50;99.90;;;;;;5107110;27;20065;-74
2022/09/18 09:08:37;;;;;;;1.92;1.10;;;12.60;99.90;;;;;;5122115;27;20033;-73
2022/09/18 09:11:24;;;;;;;1.17;0.95;;;12.60;99.90;;;;;;5140280;27;20698;-74
2022/09/18 09:14:00;;;;;;;1.55;1.20;;;12.60;99.90;;;;;;5105323;27;20032;-74
2022/09/18 09:16:43;;;;;;;2.17;1.30;;;12.60;99.90;;;;;;5119459;27;20031;-74
2022/09/18 09:19:39;;;;;;;4.45;2.38;;;12.60;99.90;;;;;;5133827;27;20101;-74
2022/09/18 09:22:37;;;;;;;3.08;2.70;;;12.50;99.90;;;;;;5125574;27;20019;-74
2022/09/18 09:25:14;;;;;;;2.75;1.20;;;12.60;99.90;;;;;;5123796;27;20040;-75
2022/09/18 09:27:43;;;;;;;1.67;1.10;;;12.50;99.90;;;;;;5132089;27;20022;-74
2022/09/18 09:30:17;;;;;;;1.15;0.90;;;12.60;99.90;;;;;;5114531;27;20023;-75
2022/09/18 09:33:01;;;;;;;1.85;0.80;;;12.60;99.90;;;;;;5104967;28;20149;-74
2022/09/18 09:35:37;;;;;;;1.42;0.80;;;12.60;99.90;;;;;;5133953;27;20401;-76
2022/09/18 09:38:15;;;;;;;1.52;1.00;;;12.60;99.90;;;;;;5102350;27;20030;-76
2022/09/18 09:40:45;;;;;;;3.90;1.10;;;12.60;99.90;;;;;;5110641;27;20322;-75
2022/09/18 09:43:28;;;;;;;1.15;0.95;;;12.70;99.90;;;;;;5085550;28;20543;-76
2022/09/18 09:45:58;;;;;;;1.02;0.90;;;12.70;99.90;;;;;;5117955;27;20050;-76
2022/09/18 09:48:45;;;;;;;1.77;0.95;;;12.80;99.90;;;;;;5083299;28;20032;-76
2022/09/18 09:51:29;;;;;;;1.40;0.82;;;12.80;99.90;;;;;;5110022;27;20102;-74
2022/09/18 09:53:57;;;;;;;1.58;0.73;;;12.90;99.90;;;;;;5102931;27;20026;-74
2022/09/18 09:56:37;;;;;;;4.32;0.90;;;13.00;99.90;;;;;;5108433;27;20080;-75
2022/09/18 09:59:06;;;;;;;1.50;0.80;;;13.00;99.90;;;;;;5080841;28;20040;-75
2022/09/18 10:01:39;;;;;;;1.70;0.80;;;13.00;99.90;;;;;;5106713;27;20031;-75
2022/09/18 10:04:36;;;;;;;1.33;0.93;;;12.90;99.90;;;;;;5089189;27;20040;-76
2022/09/18 10:07:30;;;;;;;0.70;0.70;;;12.80;99.90;;;;;;5121089;27;20221;-76
2022/09/18 10:10:20;;;;;;;2.53;1.70;;;12.70;99.90;;;;;;5108268;27;20027;-75
2022/09/18 10:13:00;;;;;;;3.75;2.00;;;12.60;99.90;;;;;;5057737;27;20028;-75
2022/09/18 10:15:39;;;;;;;2.55;1.70;;;12.60;99.90;;;;;;5087894;27;20015;-76
2022/09/18 10:18:12;;;;;;;1.17;1.08;;;12.60;99.90;;;;;;5120226;27;20068;-75
2022/09/18 10:20:40;;;;;;;1.55;1.05;;;12.60;99.90;;;;;;5104711;27;20055;-75
2022/09/18 10:23:24;;;;;;;3.30;1.10;;;12.50;99.90;;;;;;4863885;27;10000550;-74
2022/09/18 10:25:55;;;;;;;2.03;1.30;;;12.50;99.90;;;;;;5100237;27;20265;-75
2022/09/18 10:28:24;;;;;;;5.03;1.30;;;12.40;99.90;;;;;;5112992;27;20090;-74
2022/09/18 10:30:53;;;;;;;2.83;1.42;;;12.40;99.90;;;;;;5110321;27;20597;-75
2022/09/18 10:33:38;;;;;;;2.65;1.50;;;12.40;99.90;;;;;;5100508;27;20036;-74
2022/09/18 10:36:20;;;;;;;2.55;1.85;;;12.40;99.90;;;;;;5104254;28;20031;-74
2022/09/18 10:38:45;;;;;;;1.98;1.52;;;12.50;99.90;;;;;;5101960;28;20382;-74
2022/09/18 10:41:27;;;;;;;4.00;1.75;;;12.50;99.90;;;;;;5098511;28;20055;-74
2022/09/18 10:44:13;;;;;;;4.43;1.55;;;12.60;99.90;;;;;;5115084;27;20030;-74
2022/09/18 10:46:49;;;;;;;1.92;1.48;;;12.70;99.90;;;;;;5093185;27;20574;-74
2022/09/18 10:49:30;;;;;;;1.83;1.30;;;12.70;99.90;;;;;;5103666;27;20038;-74
2022/09/18 10:52:26;;;;;;;4.38;2.22;;;12.70;99.90;;;;;;5103729;28;20379;-74
2022/09/18 10:55:01;;;;;;;4.32;2.30;;;12.70;99.90;;;;;;5105841;27;20039;-74
2022/09/18 10:57:42;;;;;;;3.03;2.00;;;12.70;99.90;;;;;;5093539;27;20064;-74
2022/09/18 11:00:11;;;;;;;2.60;1.80;;;12.70;99.90;;;;;;5122834;27;20054;-74
2022/09/18 11:02:46;;;;;;;2.45;1.50;;;12.70;99.90;;;;;;5118432;27;20570;-74
2022/09/18 11:05:28;;;;;;;2.97;1.60;;;12.70;99.90;;;;;;5101980;28;20746;-74
2022/09/18 11:07:57;;;;;;;2.20;1.40;;;12.70;99.90;;;;;;5090030;27;20145;-74
2022/09/18 11:10:25;;;;;;;2.42;1.33;;;12.70;99.90;;;;;;5109908;27;20054;-74
2022/09/18 11:12:57;;;;;;;2.28;1.20;;;12.60;99.90;;;;;;5107860;27;20046;-73
2022/09/18 11:15:27;;;;;;;3.33;1.13;;;12.60;99.90;;;;;;5108125;28;20066;-73
2022/09/18 11:17:58;;;;;;;1.90;0.90;;;12.60;99.90;;;;;;5099906;27;20053;-73
2022/09/18 11:20:28;;;;;;;2.88;1.05;;;12.50;99.90;;;;;;5115358;27;20068;-74
2022/09/18 11:23:18;;;;;;;1.30;0.73;;;12.50;99.90;;;;;;5099901;27;20031;-73
2022/09/18 11:25:44;;;;;;;1.40;0.80;;;12.40;99.90;;;;;;5124757;27;20038;-74
2022/09/18 11:28:27;;;;;;;3.35;0.95;;;12.40;99.90;;;;;;5120565;27;20495;-73
2022/09/18 11:31:17;;;;;;;1.63;0.70;;;12.30;99.90;;;;;;5087548;28;20083;-73
2022/09/18 11:33:56;;;;;;;1.38;0.85;;;12.40;99.90;;;;;;5110587;27;20570;-74
2022/09/18 11:36:27;;;;;;;1.15;0.77;;;12.30;99.90;;;;;;5121779;27;20031;-73
2022/09/18 11:38:55;;;;;;;1.73;0.70;;;12.30;99.90;;;;;;5110838;27;20044;-73
2022/09/18 11:41:31;;;;;;;4.00;1.10;;;12.30;99.90;;;;;;5105582;27;20171;-74
2022/09/18 11:44:03;;;;;;;2.97;1.40;;;12.30;99.90;;;;;;5109171;27;20031;-73
2022/09/18 11:46:55;;;;;;;6.35;2.22;;;12.30;99.90;;;;;;5106703;27;20494;-73
2022/09/18 11:49:46;;;;;;;2.58;1.70;;;12.40;99.90;;;;;;5107386;27;20028;-73
2022/09/18 11:52:37;;;;;;;3.67;1.80;;;12.50;99.90;;;;;;5114338;27;20054;-73
2022/09/18 11:55:09;;;;;;;1.88;1.10;;;;;;;;;;5114397;27;20052;-74
2022/09/18 11:57:40;;;;;;;4.85;1.50;;;12.50;99.90;;;;;;5115541;27;20106;-74
2022/09/18 12:00:13;;;;;;;13.05;2.63;;;12.60;99.90;;;;;;5136187;27;20655;-73
2022/09/18 12:02:44;;;;;;;2.53;1.30;;;12.60;99.90;;;;;;5135325;27;20396;-74
2022/09/18 12:05:15;;;;;;;9.02;4.22;;;12.60;99.90;;;;;;5136129;27;20075;-74
2022/09/18 12:08:00;;;;;;;7.88;3.15;;;12.60;99.90;;;;;;5118483;27;20029;-74
2022/09/18 12:11:05;;;;;;;3.17;1.50;;;12.60;99.90;;;;;;5138368;27;20038;-74
2022/09/18 12:13:37;;;;;;;4.75;1.52;;;12.50;99.90;;;;;;5139618;27;20027;-74
2022/09/18 12:16:29;;;;;;;4.38;2.10;;;12.50;99.90;;;;;;5107812;27;20080;-74
2022/09/18 12:19:23;;;;;;;2.75;1.75;;;12.50;99.90;;;;;;5108535;27;20384;-74
2022/09/18 12:22:14;;;;;;;1.25;1.10;;;12.50;99.90;;;;;;5127809;27;20049;-74
2022/09/18 12:24:40;;;;;;;3.30;0.60;;;12.40;99.90;;;;;;5133328;27;20030;-73
2022/09/18 12:27:14;;;;;;;2.00;0.88;;;12.30;99.90;;;;;;5119800;27;20023;-74
2022/09/18 12:30:11;;;;;;;0.93;0.50;;;12.20;99.90;;;;;;5105637;27;20515;-74
2022/09/18 12:33:16;;;;;;;3.90;0.65;;;12.10;99.90;;;;;;5100350;27;20043;-73
2022/09/18 12:36:23;;;;;;;1.52;0.50;;;12.00;99.90;;;;;;5142874;27;20041;-73
2022/09/18 12:39:20;;;;;;;0.73;0.55;;;12.00;99.90;;;;;;5016169;28;20185;-74
2022/09/18 12:42:15;;;;;;;0.82;0.50;;;12.00;99.90;;;;;;5021761;28;20087;-73
2022/09/18 12:45:02;;;;;;;0.68;0.60;;;11.90;99.90;;;;;;5097156;28;20081;-74
2022/09/18 12:47:31;;;;;;;1.60;0.77;;;11.90;99.90;;;;;;5107147;27;20031;-74
2022/09/18 12:50:28;;;;;;;3.10;1.10;;;11.90;99.90;;;;;;5126586;27;20030;-74
2022/09/18 12:53:07;;;;;;;3.13;0.60;;;11.90;99.90;;;;;;5128319;27;20104;-74
2022/09/18 12:55:51;;;;;;;0.50;0.43;;;11.90;99.90;;;;;;5109405;27;20023;-74
2022/09/18 12:58:26;;;;;;;2.70;0.70;;;11.80;99.90;;;;;;5131900;27;20734;-74
2022/09/18 13:00:52;;;;;;;1.38;0.70;;;11.80;99.90;;;;;;5112852;27;20084;-73
2022/09/18 13:03:29;;;;;;;1.65;0.45;;;11.80;99.90;;;;;;5118486;27;20027;-74
2022/09/18 13:06:01;;;;;;;2.78;0.60;;;11.70;99.90;;;;;;5116628;27;20036;-74
2022/09/18 13:08:33;;;;;;;1.23;0.60;;;11.80;99.90;;;;;;5108232;27;20062;-74
2022/09/18 13:11:18;;;;;;;0.93;0.47;;;11.70;99.90;;;;;;5124117;27;20117;-74
2022/09/18 13:13:48;;;;;;;2.60;0.52;;;11.70;99.90;;;;;;5141594;27;20541;-74
2022/09/18 13:16:34;;;;;;;0.93;0.60;;;11.70;99.90;;;;;;5103284;28;20031;-74